Time;durP1;ratioP1;P1;durP2;ratioP2;P2;SDS_P1;SDS_P2;PMS_P1;PMS_P2;Temp;Humidity;BMP_temperature;BMP_pressure;BME280_temperature;BME280_humidity;BME280_pressure;Samples;Min_cycle;Max_cycle;Signal;HPM_P1;HPM_P2
2022/01/03 00:02:23;;;;;;;63.03;48.92;;;18.00;70.20;;;;;;5014364;27;90722;-66
2022/01/03 00:04:49;;;;;;;64.82;49.25;;;18.00;70.00;;;;;;5014368;27;89790;-66
2022/01/03 00:07:15;;;;;;;65.97;49.10;;;17.90;69.90;;;;;;5020819;27;90510;-66
2022/01/03 00:09:41;;;;;;;65.80;49.28;;;17.90;69.70;;;;;;5010831;27;89997;-66
2022/01/03 00:12:07;;;;;;;63.97;49.03;;;17.90;70.10;;;;;;5010715;27;90467;-66
2022/01/03 00:14:34;;;;;;;66.30;49.40;;;17.90;70.10;;;;;;5010616;27;90254;-66
2022/01/03 00:17:00;;;;;;;64.45;48.95;;;17.90;70.80;;;;;;4997394;27;91943;-66
2022/01/03 00:19:25;;;;;;;65.32;49.08;;;17.90;70.00;;;;;;5021101;27;91688;-66
2022/01/03 00:21:56;;;;;;;65.32;48.90;;;17.80;70.20;;;;;;5014547;27;90715;-66
2022/01/03 00:24:31;;;;;;;66.43;49.45;;;17.90;70.10;;;;;;5003622;27;90484;-66
2022/01/03 00:27:02;;;;;;;65.25;49.15;;;17.90;70.00;;;;;;5009868;27;90094;-66
2022/01/03 00:29:32;;;;;;;66.40;49.25;;;17.80;69.90;;;;;;5013280;27;90513;-66
2022/01/03 00:31:59;;;;;;;66.30;48.85;;;17.80;70.10;;;;;;5020241;27;89828;-66
2022/01/03 00:34:27;;;;;;;65.60;49.00;;;17.80;70.00;;;;;;5008673;27;89492;-66
2022/01/03 00:36:55;;;;;;;65.70;49.15;;;17.80;69.80;;;;;;5015247;27;91272;-65
2022/01/03 00:39:21;;;;;;;67.20;49.40;;;17.80;69.70;;;;;;4994129;27;90205;-66
2022/01/03 00:41:48;;;;;;;64.47;49.00;;;17.80;70.10;;;;;;5005951;27;90406;-65
2022/01/03 00:44:14;;;;;;;67.20;49.47;;;17.80;70.10;;;;;;5013573;27;91827;-66
2022/01/03 00:46:42;;;;;;;68.90;49.33;;;17.80;70.00;;;;;;5015397;27;90665;-66
2022/01/03 00:49:08;;;;;;;62.95;49.25;;;17.70;69.80;;;;;;5006688;27;90314;-66
2022/01/03 00:51:34;;;;;;;67.68;49.10;;;17.80;69.90;;;;;;5017161;27;90385;-66
2022/01/03 00:54:00;;;;;;;64.55;48.92;;;17.80;70.10;;;;;;5011863;27;93472;-66
2022/01/03 00:56:47;;;;;;;56.88;44.48;;;17.70;70.20;;;;;;3166292;27;10090972;-67
2022/01/03 00:59:15;;;;;;;65.45;49.17;;;17.70;70.10;;;;;;2923857;27;10092089;-66
2022/01/03 01:01:49;;;;;;;65.50;49.40;;;17.70;70.00;;;;;;5000042;27;90130;-66
2022/01/03 01:04:17;;;;;;;64.65;49.22;;;17.70;70.10;;;;;;5015618;27;89472;-66
2022/01/03 01:06:43;;;;;;;67.45;49.67;;;17.70;70.20;;;;;;5014785;27;89917;-66
2022/01/03 01:09:12;;;;;;;65.38;49.00;;;17.70;70.00;;;;;;5015154;27;91228;-66
2022/01/03 01:11:43;;;;;;;65.55;48.92;;;17.70;70.20;;;;;;5014878;27;91252;-66
2022/01/03 01:14:10;;;;;;;66.18;49.10;;;17.70;70.30;;;;;;5017418;27;89513;-66
2022/01/03 01:16:35;;;;;;;64.82;49.55;;;17.60;70.60;;;;;;5006549;27;90776;-65
2022/01/03 01:19:03;;;;;;;63.08;48.83;;;17.60;69.90;;;;;;5011057;27;89650;-66
2022/01/03 01:21:30;;;;;;;66.15;49.10;;;17.60;70.10;;;;;;5011668;27;90779;-65
2022/01/03 01:23:57;;;;;;;64.80;48.92;;;17.70;70.00;;;;;;5021645;27;91380;-66
2022/01/03 01:29:10;;;;;;;64.10;48.97;;;17.60;70.10;;;;;;5019290;27;91172;-66
2022/01/03 01:31:46;;;;;;;66.45;49.10;;;17.60;70.20;;;;;;5020477;27;90733;-66
2022/01/03 01:34:19;;;;;;;65.97;49.03;;;17.60;70.10;;;;;;5016421;27;90254;-66
2022/01/03 01:36:46;;;;;;;66.05;48.95;;;17.60;69.90;;;;;;5014587;27;90775;-66
2022/01/03 01:39:15;;;;;;;64.90;49.47;;;17.60;70.10;;;;;;5016265;27;90135;-66
2022/01/03 01:41:44;;;;;;;63.42;48.88;;;17.60;70.20;;;;;;4996790;27;90901;-66
2022/01/03 01:44:11;;;;;;;65.78;49.05;;;17.60;69.90;;;;;;5012390;27;90776;-66
2022/01/03 01:46:52;;;;;;;64.93;49.25;;;17.60;70.20;;;;;;5012484;27;92085;-66
2022/01/03 01:49:20;;;;;;;63.85;49.03;;;17.60;70.00;;;;;;5017035;27;90017;-66
2022/01/03 01:51:48;;;;;;;65.45;48.95;;;17.60;70.30;;;;;;5005652;27;89841;-66
2022/01/03 01:54:17;;;;;;;63.22;48.92;;;17.60;70.20;;;;;;5010205;27;89719;-66
2022/01/03 01:57:07;;;;;;;64.55;48.78;;;17.50;70.10;;;;;;5004569;27;90555;-66
2022/01/03 02:00:01;;;;;;;63.67;48.58;;;17.50;70.20;;;;;;5008781;27;90408;-66
2022/01/03 02:02:35;;;;;;;63.15;49.03;;;17.50;70.10;;;;;;5013670;27;91319;-65
2022/01/03 02:05:36;;;;;;;63.03;48.72;;;17.50;70.10;;;;;;5010709;27;91609;-66
2022/01/03 02:08:13;;;;;;;63.97;48.67;;;17.50;70.30;;;;;;4973168;27;92360;-66
2022/01/03 02:10:42;;;;;;;64.03;48.55;;;17.50;70.30;;;;;;5005791;27;91343;-66
2022/01/03 02:13:09;;;;;;;65.97;49.05;;;17.50;70.50;;;;;;5005670;27;89958;-66
2022/01/03 02:15:37;;;;;;;62.83;48.45;;;17.50;70.30;;;;;;5016291;27;89760;-66
2022/01/03 02:18:04;;;;;;;63.65;48.95;;;17.40;70.30;;;;;;5012373;27;90170;-67
2022/01/03 02:20:32;;;;;;;64.97;49.05;;;17.40;70.50;;;;;;5011082;27;89235;-66
2022/01/03 02:22:58;;;;;;;64.65;48.75;;;17.40;70.20;;;;;;5011237;27;89939;-66
2022/01/03 02:25:24;;;;;;;64.32;48.92;;;17.40;70.10;;;;;;5011955;27;90556;-66
2022/01/03 02:27:52;;;;;;;62.88;48.60;;;17.30;70.20;;;;;;5007469;27;91667;-66
2022/01/03 02:30:24;;;;;;;62.17;48.55;;;17.40;70.50;;;;;;5007791;27;90072;-65
2022/01/03 02:32:49;;;;;;;65.75;48.97;;;17.40;70.20;;;;;;4991865;27;98623;-66
2022/01/03 02:35:15;;;;;;;66.25;48.88;;;17.40;70.30;;;;;;5010876;27;91118;-66
2022/01/03 02:37:44;;;;;;;62.58;48.58;;;17.40;70.10;;;;;;5010747;27;89934;-66
2022/01/03 02:40:11;;;;;;;63.58;49.28;;;17.40;70.40;;;;;;5004994;27;91174;-66
2022/01/03 02:42:38;;;;;;;62.70;48.83;;;17.40;70.20;;;;;;5004582;27;94924;-66
2022/01/03 02:45:09;;;;;;;63.13;48.42;;;17.40;70.40;;;;;;5014802;27;89645;-66
2022/01/03 02:47:35;;;;;;;64.88;49.15;;;17.40;70.30;;;;;;5014955;27;91042;-66
2022/01/03 02:50:01;;;;;;;63.50;48.75;;;17.40;70.20;;;;;;5010923;27;95113;-66
2022/01/03 02:52:27;;;;;;;63.20;48.97;;;17.40;70.30;;;;;;5014449;27;90941;-66
2022/01/03 02:54:53;;;;;;;64.53;48.95;;;17.40;70.30;;;;;;5003871;27;90798;-66
2022/01/03 02:57:24;;;;;;;65.28;48.83;;;17.40;70.20;;;;;;5009008;27;90075;-66
2022/01/03 02:59:55;;;;;;;66.20;48.88;;;17.40;70.00;;;;;;5006283;27;90241;-65
2022/01/03 03:02:22;;;;;;;64.70;49.15;;;17.40;70.10;;;;;;5011740;27;94029;-66
2022/01/03 03:04:55;;;;;;;63.17;48.75;;;17.40;70.10;;;;;;5012813;27;90506;-66
2022/01/03 03:07:23;;;;;;;63.38;48.95;;;17.40;70.10;;;;;;5013973;27;90713;-66
2022/01/03 03:09:49;;;;;;;64.00;49.08;;;17.40;70.00;;;;;;5003932;27;88840;-66
2022/01/03 03:12:15;;;;;;;65.45;49.22;;;17.40;70.00;;;;;;5011534;27;90650;-66
2022/01/03 03:14:40;;;;;;;63.33;48.35;;;17.40;70.10;;;;;;5004698;27;90922;-66
2022/01/03 03:17:06;;;;;;;65.78;48.90;;;17.40;70.10;;;;;;5011595;27;91429;-65
2022/01/03 03:19:32;;;;;;;63.72;48.63;;;17.40;69.90;;;;;;5011810;27;90260;-66
2022/01/03 03:21:58;;;;;;;64.85;48.63;;;17.40;70.00;;;;;;5002967;27;89545;-66
2022/01/03 03:24:23;;;;;;;65.60;48.95;;;17.40;70.10;;;;;;5007345;27;90439;-65
2022/01/03 03:26:49;;;;;;;64.38;48.67;;;17.40;69.90;;;;;;5008940;27;90771;-66
2022/01/03 03:29:15;;;;;;;62.67;48.35;;;17.40;69.90;;;;;;5010880;27;93074;-66
2022/01/03 03:31:41;;;;;;;62.85;48.55;;;17.40;70.00;;;;;;5012156;27;91077;-66
2022/01/03 03:34:06;;;;;;;64.78;48.92;;;17.40;70.10;;;;;;4998209;27;90274;-66
2022/01/03 03:36:32;;;;;;;65.07;48.80;;;17.40;69.80;;;;;;5006733;27;89977;-66
2022/01/03 03:38:58;;;;;;;63.97;48.55;;;17.40;69.90;;;;;;4983029;27;90081;-66
2022/01/03 03:41:23;;;;;;;64.35;48.72;;;17.40;69.80;;;;;;5001334;27;90966;-66
2022/01/03 03:43:49;;;;;;;62.55;48.60;;;17.40;69.90;;;;;;5007617;27;90086;-66
2022/01/03 03:46:15;;;;;;;65.30;49.03;;;17.40;70.10;;;;;;5005142;27;90376;-66
2022/01/03 03:48:41;;;;;;;64.18;48.65;;;17.30;69.90;;;;;;5006867;27;89825;-65
2022/01/03 03:51:06;;;;;;;63.05;48.42;;;17.30;70.00;;;;;;5009438;27;90923;-65
2022/01/03 03:53:32;;;;;;;62.47;48.53;;;17.30;70.00;;;;;;5014804;27;90478;-66
2022/01/03 03:55:58;;;;;;;62.30;48.60;;;17.30;70.00;;;;;;4990844;27;90631;-66
2022/01/03 03:58:23;;;;;;;63.33;48.70;;;17.30;70.10;;;;;;5010102;27;89885;-66
2022/01/03 04:00:49;;;;;;;60.75;48.25;;;17.30;70.20;;;;;;5012964;27;97621;-66
2022/01/03 04:03:15;;;;;;;64.30;48.55;;;17.30;70.20;;;;;;5009115;27;90641;-66
2022/01/03 04:05:40;;;;;;;62.22;48.35;;;17.30;70.40;;;;;;5006473;27;92382;-65
2022/01/03 04:08:06;;;;;;;62.63;48.45;;;17.20;70.20;;;;;;5011588;27;89732;-66
2022/01/03 04:10:32;;;;;;;65.15;48.80;;;17.30;70.30;;;;;;5001635;27;90944;-66
2022/01/03 04:12:57;;;;;;;64.78;48.50;;;17.20;70.10;;;;;;5003238;27;89947;-66
2022/01/03 04:15:23;;;;;;;62.33;48.47;;;17.20;70.40;;;;;;5016769;27;90017;-65
2022/01/03 04:17:49;;;;;;;63.25;48.30;;;17.20;70.30;;;;;;5009055;27;90547;-65
2022/01/03 04:20:16;;;;;;;63.53;48.67;;;17.20;70.40;;;;;;5012977;27;90988;-66
2022/01/03 04:22:42;;;;;;;63.03;48.55;;;17.20;70.40;;;;;;5008987;27;90156;-66
2022/01/03 04:25:09;;;;;;;62.05;48.65;;;17.20;70.40;;;;;;5013028;27;89438;-66
2022/01/03 04:27:35;;;;;;;63.75;48.55;;;17.10;70.50;;;;;;5015236;27;89536;-66
2022/01/03 04:30:01;;;;;;;61.50;48.22;;;17.10;71.10;;;;;;5006658;27;93463;-66
2022/01/03 04:32:26;;;;;;;61.15;48.33;;;17.20;70.40;;;;;;5019745;27;90004;-66
2022/01/03 04:34:52;;;;;;;63.95;48.60;;;17.20;70.50;;;;;;5014178;27;96947;-66
2022/01/03 04:37:17;;;;;;;61.65;48.35;;;17.20;70.40;;;;;;5015544;27;89844;-66
2022/01/03 04:39:44;;;;;;;63.15;48.53;;;17.20;70.30;;;;;;5008813;27;90116;-66
2022/01/03 04:42:09;;;;;;;63.72;48.28;;;17.20;70.20;;;;;;5000338;27;91304;-66
2022/01/03 04:44:35;;;;;;;64.75;48.85;;;17.20;70.30;;;;;;5017375;27;91832;-66
2022/01/03 04:47:02;;;;;;;62.45;48.63;;;17.20;70.30;;;;;;5007516;27;93351;-66
2022/01/03 04:49:27;;;;;;;65.65;48.72;;;17.20;70.30;;;;;;5015330;27;89860;-65
2022/01/03 04:51:53;;;;;;;63.75;48.65;;;17.20;70.10;;;;;;5000023;27;90905;-66
2022/01/03 04:54:19;;;;;;;62.40;48.33;;;17.20;70.10;;;;;;5015020;27;91577;-66
2022/01/03 04:56:45;;;;;;;63.92;48.58;;;17.20;70.10;;;;;;5009219;27;90650;-66
2022/01/03 04:59:11;;;;;;;62.42;48.58;;;17.20;70.10;;;;;;5010499;27;90305;-66
2022/01/03 05:01:36;;;;;;;61.50;48.17;;;17.20;70.30;;;;;;5020822;27;90028;-66
2022/01/03 05:04:02;;;;;;;64.03;48.63;;;17.20;70.40;;;;;;5010138;27;90913;-65
2022/01/03 05:06:29;;;;;;;63.33;48.65;;;17.30;70.50;;;;;;5016100;27;90435;-66
2022/01/03 05:08:55;;;;;;;63.22;48.67;;;17.40;70.40;;;;;;5012361;27;89763;-66
2022/01/03 05:11:20;;;;;;;62.83;48.78;;;17.60;70.20;;;;;;5004747;27;89129;-66
2022/01/03 05:13:46;;;;;;;64.78;48.78;;;17.60;69.90;;;;;;5005334;27;91417;-66
2022/01/03 05:16:12;;;;;;;61.78;48.50;;;17.80;69.70;;;;;;5018204;27;91862;-65
2022/01/03 05:18:37;;;;;;;63.67;48.58;;;17.90;69.30;;;;;;5004319;28;91002;-66
2022/01/03 05:21:03;;;;;;;65.38;49.13;;;18.00;69.30;;;;;;5012040;27;90329;-66
2022/01/03 05:23:28;;;;;;;63.53;48.60;;;18.10;68.80;;;;;;5014106;27;90624;-66
2022/01/03 05:25:54;;;;;;;64.28;48.90;;;18.20;68.50;;;;;;5007768;27;90209;-66
2022/01/03 05:28:20;;;;;;;63.58;48.90;;;18.40;68.40;;;;;;5016431;27;90489;-66
2022/01/03 05:30:46;;;;;;;65.05;48.80;;;18.50;68.10;;;;;;5011160;27;89984;-66
2022/01/03 05:33:11;;;;;;;63.58;48.80;;;18.60;68.00;;;;;;5009299;27;90150;-66
2022/01/03 05:35:37;;;;;;;64.55;48.90;;;18.60;67.50;;;;;;5015659;27;93588;-66
2022/01/03 05:38:03;;;;;;;63.75;49.20;;;18.70;67.20;;;;;;5013299;27;89816;-66
2022/01/03 05:40:29;;;;;;;63.80;48.90;;;18.80;67.00;;;;;;5011039;27;90748;-66
2022/01/03 05:42:55;;;;;;;63.90;48.90;;;18.90;66.90;;;;;;5011214;27;91032;-66
2022/01/03 05:45:20;;;;;;;64.93;48.90;;;18.90;66.60;;;;;;5013150;27;90377;-66
2022/01/03 05:47:48;;;;;;;62.20;48.53;;;19.00;66.50;;;;;;5019824;27;89419;-66
2022/01/03 05:50:15;;;;;;;63.65;48.75;;;19.10;66.40;;;;;;5005590;27;92023;-66
2022/01/03 05:52:41;;;;;;;63.90;49.00;;;19.10;66.00;;;;;;5016803;27;90273;-66
2022/01/03 05:55:08;;;;;;;63.63;48.95;;;19.10;66.00;;;;;;5006342;27;92365;-65
2022/01/03 05:57:33;;;;;;;62.40;48.63;;;19.20;65.70;;;;;;5015175;27;89966;-66
2022/01/03 06:00:00;;;;;;;65.10;49.15;;;19.20;65.60;;;;;;5017774;27;89213;-66
2022/01/03 06:02:28;;;;;;;63.90;49.30;;;19.20;65.70;;;;;;5005605;27;90215;-66
2022/01/03 06:04:58;;;;;;;65.13;49.15;;;19.20;65.70;;;;;;5016703;27;89880;-66
2022/01/03 06:07:23;;;;;;;63.90;49.05;;;19.20;65.50;;;;;;5020913;27;90806;-66
2022/01/03 06:09:50;;;;;;;62.35;48.92;;;19.20;65.20;;;;;;5015770;27;90578;-66
2022/01/03 06:12:17;;;;;;;64.43;48.85;;;19.20;65.50;;;;;;5009330;27;91605;-66
2022/01/03 06:14:44;;;;;;;63.33;48.70;;;19.20;66.10;;;;;;5009391;27;91019;-66
2022/01/03 06:17:10;;;;;;;65.28;49.08;;;19.20;65.30;;;;;;4998951;27;90355;-66
2022/01/03 06:19:36;;;;;;;63.63;48.88;;;19.20;65.30;;;;;;5012077;27;90570;-66
2022/01/03 06:22:03;;;;;;;63.58;48.75;;;19.20;65.30;;;;;;5010469;27;90738;-66
2022/01/03 06:24:29;;;;;;;63.55;48.75;;;19.20;65.30;;;;;;5019798;27;88835;-65
2022/01/03 06:26:54;;;;;;;64.68;48.90;;;19.10;65.40;;;;;;5024215;27;89374;-66
2022/01/03 06:29:20;;;;;;;63.63;49.03;;;19.10;65.40;;;;;;5015785;27;90968;-66
2022/01/03 06:31:48;;;;;;;62.42;49.05;;;19.10;65.40;;;;;;5017164;27;92676;-66
2022/01/03 06:34:14;;;;;;;63.00;49.00;;;19.10;65.30;;;;;;5013180;27;90343;-66
2022/01/03 06:36:40;;;;;;;62.78;48.88;;;19.10;65.60;;;;;;5016626;27;89495;-66
2022/01/03 06:39:06;;;;;;;61.50;48.63;;;19.00;65.50;;;;;;5014704;27;91282;-66
2022/01/03 06:41:32;;;;;;;64.78;49.30;;;19.10;65.60;;;;;;5005193;27;89474;-66
2022/01/03 06:43:58;;;;;;;63.40;48.85;;;19.10;65.70;;;;;;5003236;27;90816;-66
2022/01/03 06:46:23;;;;;;;65.57;49.08;;;19.00;65.50;;;;;;5018005;27;92961;-66
2022/01/03 06:48:49;;;;;;;65.68;49.22;;;19.00;65.80;;;;;;5010435;27;89942;-66
2022/01/03 06:51:16;;;;;;;64.25;48.95;;;19.00;65.70;;;;;;5014372;27;90031;-66
2022/01/03 06:53:43;;;;;;;66.38;49.17;;;19.00;65.90;;;;;;5011456;27;90935;-66
2022/01/03 06:56:09;;;;;;;63.15;49.05;;;18.90;65.80;;;;;;5009163;27;91625;-66
2022/01/03 06:58:35;;;;;;;62.70;48.58;;;18.90;65.90;;;;;;5011513;27;90491;-66
2022/01/03 07:01:02;;;;;;;62.72;48.92;;;18.90;65.80;;;;;;4998023;27;90807;-66
2022/01/03 07:03:28;;;;;;;64.63;48.80;;;18.90;65.80;;;;;;4994560;27;90244;-66
2022/01/03 07:05:53;;;;;;;63.00;48.72;;;18.90;65.80;;;;;;5019643;27;91569;-66
2022/01/03 07:08:22;;;;;;;63.42;48.65;;;18.80;65.80;;;;;;5013931;27;90838;-66
2022/01/03 07:10:49;;;;;;;63.53;49.10;;;18.80;65.90;;;;;;4998540;27;95862;-65
2022/01/03 07:13:15;;;;;;;63.13;48.58;;;18.80;65.90;;;;;;4992054;28;89572;-66
2022/01/03 07:21:11;;;;;;;63.22;48.92;;;18.70;65.90;;;;;;5010889;27;92018;-66
2022/01/03 07:23:36;;;;;;;62.75;48.83;;;18.80;66.10;;;;;;5010937;27;90012;-66
2022/01/03 07:26:03;;;;;;;62.83;48.97;;;18.70;66.00;;;;;;5009280;27;90557;-66
2022/01/03 07:28:28;;;;;;;64.85;49.13;;;18.70;66.10;;;;;;5001796;27;91414;-66
2022/01/03 07:30:54;;;;;;;63.78;48.78;;;18.70;66.20;;;;;;5011214;27;90804;-66
2022/01/03 07:33:19;;;;;;;63.70;48.90;;;18.60;66.10;;;;;;5012258;27;89969;-66
2022/01/03 07:35:45;;;;;;;64.15;49.30;;;18.60;66.20;;;;;;5009766;27;96208;-66
2022/01/03 07:38:11;;;;;;;62.80;48.60;;;18.60;66.20;;;;;;5007075;27;89742;-66
2022/01/03 07:40:36;;;;;;;63.78;48.83;;;18.50;66.50;;;;;;4984220;27;93839;-66
2022/01/03 07:43:03;;;;;;;63.03;48.58;;;18.50;66.40;;;;;;5013394;27;90068;-66
2022/01/03 07:45:29;;;;;;;63.35;48.90;;;18.50;66.40;;;;;;4991630;27;97322;-66
2022/01/03 07:47:54;;;;;;;63.50;48.83;;;18.50;66.50;;;;;;5010874;27;94317;-66
2022/01/03 07:50:20;;;;;;;65.70;49.22;;;18.40;66.40;;;;;;5014220;27;90395;-66
2022/01/03 07:52:45;;;;;;;64.95;49.22;;;18.40;66.40;;;;;;5007200;27;91785;-66
2022/01/03 07:55:12;;;;;;;64.88;48.95;;;18.40;66.60;;;;;;5004466;27;90009;-66
2022/01/03 07:57:39;;;;;;;63.30;48.75;;;18.30;66.50;;;;;;5008969;27;89992;-66
2022/01/03 08:00:07;;;;;;;62.95;49.03;;;18.40;66.60;;;;;;5009243;27;90705;-66
2022/01/03 08:02:33;;;;;;;65.03;48.72;;;18.30;66.80;;;;;;5008254;27;94562;-66
2022/01/03 08:04:58;;;;;;;66.28;49.00;;;18.30;66.80;;;;;;5009523;27;89942;-66
2022/01/03 08:07:24;;;;;;;64.60;48.83;;;18.30;66.90;;;;;;5020275;27;90055;-66
2022/01/03 08:09:50;;;;;;;62.22;48.53;;;18.40;66.80;;;;;;4998776;27;90532;-66
2022/01/03 08:12:16;;;;;;;63.80;48.85;;;18.40;66.70;;;;;;5006209;27;93313;-66
2022/01/03 08:14:42;;;;;;;63.20;48.65;;;18.40;66.70;;;;;;5009006;27;90140;-66
2022/01/03 08:17:08;;;;;;;63.58;48.72;;;18.50;66.70;;;;;;5010285;27;91257;-65
2022/01/03 08:19:34;;;;;;;63.63;48.65;;;18.50;66.60;;;;;;5010951;27;90709;-66
2022/01/03 08:22:00;;;;;;;63.33;48.70;;;18.60;66.40;;;;;;5007938;27;90505;-66
2022/01/03 08:24:26;;;;;;;66.93;49.05;;;18.60;66.30;;;;;;5016407;27;89821;-66
2022/01/03 08:26:52;;;;;;;62.63;48.67;;;18.60;66.20;;;;;;5012251;27;88939;-66
2022/01/03 08:29:18;;;;;;;62.42;48.85;;;18.70;66.20;;;;;;5006077;27;90593;-66
2022/01/03 08:31:43;;;;;;;64.40;48.92;;;18.70;66.00;;;;;;5009869;27;89553;-66
2022/01/03 08:34:09;;;;;;;63.10;49.10;;;18.70;65.90;;;;;;5009900;27;91052;-66
2022/01/03 08:36:35;;;;;;;61.88;48.42;;;18.70;65.80;;;;;;5013024;27;90462;-66
2022/01/03 08:39:00;;;;;;;67.35;49.13;;;18.70;65.70;;;;;;5008768;27;90910;-65
2022/01/03 08:41:26;;;;;;;64.45;48.95;;;18.70;65.60;;;;;;5004564;27;90415;-66
2022/01/03 08:43:52;;;;;;;62.92;48.80;;;18.80;65.70;;;;;;5004052;27;89844;-65
2022/01/03 08:46:19;;;;;;;62.63;48.75;;;18.70;65.50;;;;;;5010492;27;90735;-65
2022/01/03 08:48:45;;;;;;;63.92;48.92;;;18.80;65.40;;;;;;5007514;27;90728;-66
2022/01/03 08:51:11;;;;;;;62.53;48.55;;;18.80;65.60;;;;;;5007988;27;89911;-65
2022/01/03 08:53:37;;;;;;;63.42;48.97;;;18.70;65.50;;;;;;5009916;27;90356;-66
2022/01/03 08:56:03;;;;;;;68.90;49.15;;;18.70;65.60;;;;;;5010869;27;90197;-65
2022/01/03 08:58:29;;;;;;;64.13;48.75;;;18.70;65.50;;;;;;4989891;27;92055;-65
2022/01/03 09:00:56;;;;;;;63.80;48.83;;;18.70;65.60;;;;;;5003338;27;90427;-65
2022/01/03 09:03:22;;;;;;;63.10;49.08;;;18.70;65.50;;;;;;5005659;27;91687;-65
2022/01/03 09:05:53;;;;;;;63.65;49.00;;;18.70;65.60;;;;;;5007162;27;89798;-66
2022/01/03 09:08:19;;;;;;;63.95;49.10;;;18.70;65.60;;;;;;4987970;28;91077;-66
2022/01/03 09:10:44;;;;;;;65.85;49.15;;;18.70;65.60;;;;;;5006449;27;89852;-65
2022/01/03 09:13:10;;;;;;;63.45;48.92;;;18.60;65.70;;;;;;5007276;27;91106;-65
2022/01/03 09:15:37;;;;;;;63.97;49.30;;;18.60;65.70;;;;;;5009759;27;89917;-65
2022/01/03 09:18:03;;;;;;;62.92;48.97;;;18.60;65.80;;;;;;5004861;27;90288;-66
2022/01/03 09:20:29;;;;;;;64.55;49.17;;;18.60;65.90;;;;;;5011138;27;89554;-65
2022/01/03 09:23:04;;;;;;;62.92;48.85;;;18.60;65.90;;;;;;5013484;27;90968;-65
2022/01/03 09:30:46;;;;;;;63.08;48.60;;;18.50;65.90;;;;;;5011583;27;89998;-65
2022/01/03 09:33:12;;;;;;;62.40;48.53;;;18.50;65.90;;;;;;5010526;27;90410;-65
2022/01/03 09:35:38;;;;;;;63.95;48.75;;;18.50;66.20;;;;;;5017215;27;90225;-65
2022/01/03 09:38:04;;;;;;;63.85;48.53;;;18.50;66.10;;;;;;5010297;27;89778;-66
2022/01/03 09:40:31;;;;;;;63.97;48.70;;;18.50;66.20;;;;;;5010253;27;90033;-66
2022/01/03 09:42:59;;;;;;;64.80;48.78;;;18.50;66.10;;;;;;5009013;27;90438;-66
2022/01/03 09:45:34;;;;;;;65.43;48.72;;;18.60;66.10;;;;;;5009676;27;91107;-64
2022/01/03 09:48:03;;;;;;;62.67;48.75;;;18.60;66.00;;;;;;4999604;27;96072;-69
2022/01/03 09:50:32;;;;;;;62.90;48.90;;;18.70;65.90;;;;;;4992848;27;90297;-66
2022/01/03 09:52:58;;;;;;;64.50;49.33;;;18.70;65.80;;;;;;5014797;27;90471;-65
2022/01/03 09:55:24;;;;;;;62.42;48.80;;;18.80;65.70;;;;;;5013180;27;91324;-63
2022/01/03 09:57:50;;;;;;;63.10;48.95;;;18.80;65.40;;;;;;4994606;27;91248;-65
2022/01/03 10:00:22;;;;;;;65.28;49.15;;;18.90;65.30;;;;;;5014967;27;90012;-66
2022/01/03 10:02:49;;;;;;;62.92;49.05;;;18.90;65.20;;;;;;5004634;27;90789;-65
2022/01/03 10:05:15;;;;;;;63.58;48.97;;;18.90;65.20;;;;;;5017117;27;89761;-65
2022/01/03 10:07:41;;;;;;;64.90;49.03;;;19.00;65.20;;;;;;5000390;27;90524;-66
2022/01/03 10:10:09;;;;;;;63.83;49.13;;;19.00;65.00;;;;;;5010479;27;89599;-66
2022/01/03 10:12:36;;;;;;;63.70;49.05;;;19.00;65.00;;;;;;5010908;27;91357;-67
2022/01/03 10:15:07;;;;;;;65.03;49.22;;;19.00;64.90;;;;;;5016660;27;90492;-65
2022/01/03 10:17:41;;;;;;;64.60;49.42;;;19.00;64.90;;;;;;5016279;27;90618;-66
2022/01/03 10:20:10;;;;;;;64.30;49.10;;;18.90;65.00;;;;;;5014170;27;89667;-67
2022/01/03 10:22:37;;;;;;;64.60;49.13;;;19.00;65.00;;;;;;5011743;27;91304;-67
2022/01/03 10:25:19;;;;;;;63.38;48.95;;;19.00;65.00;;;;;;5014186;27;90593;-66
2022/01/03 10:27:44;;;;;;;65.07;49.38;;;19.00;65.10;;;;;;5014478;27;89709;-66
2022/01/03 10:30:11;;;;;;;63.60;49.03;;;19.00;65.00;;;;;;5006694;27;89661;-65
2022/01/03 10:32:37;;;;;;;63.30;48.90;;;19.00;65.60;;;;;;5003485;27;89988;-66
2022/01/03 10:35:17;;;;;;;66.75;49.33;;;19.00;65.00;;;;;;4999932;27;91700;-66
2022/01/03 10:37:43;;;;;;;64.20;49.05;;;19.00;65.00;;;;;;5002308;27;90953;-66
2022/01/03 10:40:15;;;;;;;67.03;48.65;;;19.00;65.10;;;;;;5007518;27;89968;-66
2022/01/03 10:42:41;;;;;;;64.88;49.08;;;18.90;65.10;;;;;;5010658;27;90212;-65
2022/01/03 10:45:07;;;;;;;64.05;48.90;;;18.90;65.30;;;;;;4998737;27;92025;-65
2022/01/03 10:47:34;;;;;;;67.88;49.40;;;18.90;65.30;;;;;;5000015;27;90272;-65
2022/01/03 10:50:13;;;;;;;64.20;49.17;;;18.90;65.40;;;;;;5011454;27;90408;-65
2022/01/03 10:52:40;;;;;;;63.45;49.15;;;18.90;65.40;;;;;;5007335;27;90222;-65
2022/01/03 10:55:17;;;;;;;63.50;49.05;;;18.90;65.60;;;;;;5006844;27;90093;-65
2022/01/03 10:57:55;;;;;;;63.90;48.97;;;18.80;65.40;;;;;;4987056;27;99298;-67
2022/01/03 11:00:29;;;;;;;63.33;49.13;;;18.80;65.50;;;;;;5009616;27;90178;-65
2022/01/03 11:05:47;;;;;;;65.32;49.35;;;18.80;65.50;;;;;;5012789;27;90342;-65
2022/01/03 11:10:59;;;;;;;64.82;49.25;;;18.80;65.50;;;;;;5001891;27;90743;-66
2022/01/03 11:13:26;;;;;;;66.05;49.50;;;18.80;65.60;;;;;;5015455;27;89994;-65
2022/01/03 11:15:55;;;;;;;63.65;48.92;;;18.80;65.60;;;;;;5006159;27;95296;-65
2022/01/03 11:18:24;;;;;;;65.30;49.33;;;18.80;65.50;;;;;;5004493;27;92271;-65
2022/01/03 11:21:11;;;;;;;63.47;49.30;;;18.80;65.60;;;;;;5002201;27;90362;-64
2022/01/03 11:23:38;;;;;;;63.83;49.30;;;18.80;65.70;;;;;;5004550;27;90339;-63
2022/01/03 11:26:09;;;;;;;65.72;49.25;;;18.70;65.60;;;;;;5008526;27;93091;-65
2022/01/03 11:28:35;;;;;;;64.13;49.28;;;18.70;65.80;;;;;;4990846;27;91256;-64
2022/01/03 11:31:02;;;;;;;64.80;49.28;;;18.70;65.80;;;;;;5001985;27;89918;-64
2022/01/03 11:33:29;;;;;;;65.95;49.10;;;18.70;65.90;;;;;;5008008;27;89518;-64
2022/01/03 11:35:57;;;;;;;63.83;49.15;;;18.70;66.00;;;;;;5015922;27;90530;-62
2022/01/03 11:38:23;;;;;;;64.18;49.35;;;18.70;66.00;;;;;;4997158;27;90000;-63
2022/01/03 11:40:50;;;;;;;63.40;48.95;;;18.70;66.10;;;;;;5016192;27;90123;-64
2022/01/03 11:43:16;;;;;;;64.68;49.47;;;18.80;65.90;;;;;;5004041;27;89893;-64
2022/01/03 11:45:43;;;;;;;67.00;49.30;;;18.80;65.90;;;;;;5012589;27;90295;-63
2022/01/03 11:48:10;;;;;;;65.88;49.25;;;18.90;65.80;;;;;;4989670;27;90978;-64
2022/01/03 11:50:37;;;;;;;67.75;49.63;;;18.90;65.60;;;;;;5011643;27;91534;-64
2022/01/03 11:53:08;;;;;;;65.90;49.22;;;18.90;65.60;;;;;;5007485;27;92088;-63
2022/01/03 11:55:35;;;;;;;64.47;49.30;;;19.00;65.40;;;;;;5016265;27;92670;-65
2022/01/03 12:06:02;;;;;;;64.35;49.53;;;19.10;65.00;;;;;;4997085;28;90681;-63
2022/01/03 12:08:34;;;;;;;67.22;49.60;;;19.10;65.00;;;;;;5008686;27;90023;-65
2022/01/03 12:11:15;;;;;;;65.20;49.70;;;19.10;65.00;;;;;;5000026;27;88852;-65
2022/01/03 12:13:53;;;;;;;65.18;49.47;;;19.20;65.00;;;;;;4997566;27;90888;-63
2022/01/03 12:16:38;;;;;;;66.40;49.30;;;19.10;64.90;;;;;;5001297;27;90983;-63
2022/01/03 12:19:10;;;;;;;63.85;49.42;;;19.10;64.90;;;;;;4982224;27;91162;-63
2022/01/03 12:21:58;;;;;;;65.78;49.45;;;19.10;65.20;;;;;;4994331;27;89481;-66
2022/01/03 12:24:27;;;;;;;67.10;49.47;;;19.10;65.10;;;;;;5010394;27;89594;-65
2022/01/03 12:27:12;;;;;;;66.93;49.53;;;19.10;65.20;;;;;;5003015;27;91201;-66
2022/01/03 12:29:56;;;;;;;65.75;49.58;;;19.00;65.20;;;;;;5013816;27;89747;-66
2022/01/03 12:32:23;;;;;;;66.40;49.15;;;19.00;65.20;;;;;;5017388;28;89657;-65
2022/01/03 12:35:10;;;;;;;65.97;49.72;;;19.00;65.30;;;;;;5015249;27;89769;-66
2022/01/03 12:37:54;;;;;;;65.90;49.55;;;19.00;65.40;;;;;;5009310;27;92377;-66
2022/01/03 12:40:31;;;;;;;69.68;49.65;;;19.00;65.50;;;;;;5012910;27;90233;-65
2022/01/03 12:42:59;;;;;;;64.88;49.63;;;18.90;65.60;;;;;;5015466;27;90212;-65
2022/01/03 12:45:31;;;;;;;67.68;49.70;;;18.90;65.60;;;;;;5017427;27;90573;-64
2022/01/03 12:48:14;;;;;;;67.57;50.17;;;18.90;65.70;;;;;;5011926;27;91244;-65
2022/01/03 12:50:52;;;;;;;66.18;49.75;;;18.90;65.80;;;;;;5010806;27;95455;-66
2022/01/03 12:53:27;;;;;;;67.97;49.95;;;18.90;65.80;;;;;;5009678;27;91622;-66
2022/01/03 12:56:05;;;;;;;68.20;49.65;;;18.80;65.90;;;;;;5011067;27;89884;-67
2022/01/03 12:58:31;;;;;;;67.38;49.95;;;18.80;66.00;;;;;;5013182;27;90362;-66